Time;durP1;ratioP1;P1;durP2;ratioP2;P2;SDS_P1;SDS_P2;PMS_P1;PMS_P2;Temp;Humidity;BMP_temperature;BMP_pressure;BME280_temperature;BME280_humidity;BME280_pressure;Samples;Min_cycle;Max_cycle;Signal;HPM_P1;HPM_P2
2023/04/28 00:02:03;;;;;;;9.57;5.85;;;;;;;9.04;56.05;101244.28;4973398;28;20040;-71
2023/04/28 00:04:29;;;;;;;8.57;5.35;;;;;;;8.86;57.12;101233.19;4971730;28;20070;-71
2023/04/28 00:06:57;;;;;;;9.75;5.25;;;;;;;8.72;57.99;101232.53;4977757;28;20038;-71
2023/04/28 00:09:24;;;;;;;8.32;5.78;;;;;;;8.60;58.88;101229.22;4985994;28;20039;-71
2023/04/28 00:11:51;;;;;;;7.47;5.60;;;;;;;8.54;59.49;101213.53;4983178;28;20082;-71
2023/04/28 00:14:18;;;;;;;8.52;6.00;;;;;;;8.52;60.26;101207.44;4967932;28;20051;-71
2023/04/28 00:16:45;;;;;;;10.15;5.80;;;;;;;8.55;60.32;101212.66;4986249;28;20043;-71
2023/04/28 00:19:12;;;;;;;9.50;6.45;;;;;;;8.60;60.26;101200.28;4986954;28;20050;-71
2023/04/28 00:21:39;;;;;;;9.40;5.60;;;;;;;8.62;60.95;101195.03;4986790;28;20502;-71
2023/04/28 00:24:07;;;;;;;10.40;5.82;;;;;;;8.64;61.02;101207.25;4989636;28;20039;-71
2023/04/28 00:26:34;;;;;;;12.38;5.97;;;;;;;8.58;61.12;101198.59;4978199;28;20050;-71
2023/04/28 00:29:01;;;;;;;11.07;6.05;;;;;;;8.46;61.22;101207.50;4982272;28;20039;-71
2023/04/28 00:31:28;;;;;;;10.75;5.90;;;;;;;8.36;61.81;101193.63;4983580;28;20053;-71
2023/04/28 00:33:55;;;;;;;11.05;5.80;;;;;;;8.29;62.08;101198.13;4988390;28;20053;-71
2023/04/28 00:36:22;;;;;;;9.65;6.10;;;;;;;8.29;62.34;101192.00;4979430;28;20457;-71
2023/04/28 00:38:49;;;;;;;10.68;6.25;;;;;;;8.35;62.55;101195.41;4976980;28;20478;-71
2023/04/28 00:41:16;;;;;;;11.00;6.20;;;;;;;8.38;62.56;101194.50;4974205;28;20031;-70
2023/04/28 00:43:47;;;;;;;12.38;6.25;;;;;;;8.44;62.09;101188.28;4970925;28;20463;-71
2023/04/28 00:46:28;;;;;;;10.15;5.75;;;;;;;8.45;62.34;101182.97;4979806;28;20041;-71
2023/04/28 00:48:56;;;;;;;8.02;5.57;;;;;;;8.39;62.26;101172.59;4973688;28;20044;-71
2023/04/28 00:51:23;;;;;;;9.68;5.63;;;;;;;8.28;62.96;101174.50;4974394;28;21984;-71
2023/04/28 00:53:50;;;;;;;10.32;6.68;;;;;;;8.21;63.37;101177.25;4971267;28;20043;-71
2023/04/28 00:56:18;;;;;;;12.38;6.80;;;;;;;8.21;64.06;101174.63;4970029;28;20133;-72
2023/04/28 00:58:45;;;;;;;10.25;6.45;;;;;;;8.22;64.17;101180.72;4976223;28;20050;-71
2023/04/28 01:01:12;;;;;;;11.18;6.70;;;;;;;8.22;64.28;101173.72;4980474;28;20036;-72
2023/04/28 01:03:40;;;;;;;13.48;6.55;;;;;;;8.27;64.57;101178.91;4986283;28;20106;-71
2023/04/28 01:06:08;;;;;;;10.35;6.65;;;;;;;8.35;64.96;101176.13;4960083;28;20049;-72
2023/04/28 01:08:38;;;;;;;10.63;6.47;;;;;;;8.41;64.50;101168.19;4983176;28;20685;-72
2023/04/28 01:11:13;;;;;;;11.05;6.68;;;;;;;8.46;64.68;101165.47;4984320;28;20032;-72
2023/04/28 01:13:59;;;;;;;10.25;5.82;;;;;;;8.48;64.60;101155.84;4976111;28;20178;-72
2023/04/28 01:16:31;;;;;;;9.68;6.43;;;;;;;8.45;64.50;101150.59;4984393;28;20050;-72
2023/04/28 01:18:59;;;;;;;10.60;6.88;;;;;;;8.42;64.70;101163.78;4973586;28;20103;-70
2023/04/28 01:21:31;;;;;;;10.27;6.55;;;;;;;8.44;65.48;101162.00;5000012;28;20520;-70
2023/04/28 01:24:05;;;;;;;12.80;7.18;;;;;;;8.43;65.58;101153.25;4995235;28;20130;-70
2023/04/28 01:26:32;;;;;;;9.82;6.70;;;;;;;8.42;65.36;101148.91;4978068;28;20955;-70
2023/04/28 01:29:00;;;;;;;11.38;6.57;;;;;;;8.38;65.52;101150.72;4985182;28;20062;-71
2023/04/28 01:31:29;;;;;;;9.30;6.25;;;;;;;8.37;65.97;101148.09;4982116;28;20040;-70
2023/04/28 01:33:57;;;;;;;14.07;6.97;;;;;;;8.36;66.39;101146.34;4982203;28;20058;-71
2023/04/28 01:36:26;;;;;;;10.05;6.90;;;;;;;8.36;66.80;101141.09;4976613;28;20042;-70
2023/04/28 01:38:54;;;;;;;9.98;6.72;;;;;;;8.37;67.01;101134.94;4962703;28;20538;-70
2023/04/28 01:41:21;;;;;;;12.13;7.20;;;;;;;8.34;67.17;101130.63;4969971;28;20118;-70
2023/04/28 01:43:48;;;;;;;11.80;6.97;;;;;;;8.35;67.52;101113.09;4988497;28;20035;-70
2023/04/28 01:46:15;;;;;;;10.98;6.85;;;;;;;8.34;67.14;101120.13;4970718;28;20131;-71
2023/04/28 01:48:42;;;;;;;14.82;6.93;;;;;;;8.30;67.58;101114.94;4979554;28;20077;-71
2023/04/28 01:51:09;;;;;;;8.65;6.80;;;;;;;8.27;67.65;101109.72;4984858;28;20523;-71
2023/04/28 01:53:37;;;;;;;12.70;7.28;;;;;;;8.23;67.85;101112.44;4975655;28;20566;-71
2023/04/28 01:56:05;;;;;;;9.45;7.13;;;;;;;8.21;68.03;101116.84;4979336;28;20047;-71
2023/04/28 01:58:33;;;;;;;11.32;7.60;;;;;;;8.19;68.29;101121.22;4982766;28;20594;-71
2023/04/28 02:01:00;;;;;;;11.13;7.65;;;;;;;8.20;68.69;101124.72;4973133;28;20061;-71
2023/04/28 02:03:30;;;;;;;12.20;7.70;;;;;;;8.14;68.89;101119.56;4987999;28;20526;-71
2023/04/28 02:05:57;;;;;;;12.77;8.30;;;;;;;8.11;69.63;101114.34;4989517;28;20047;-71
2023/04/28 02:08:24;;;;;;;15.38;8.80;;;;;;;8.07;70.01;101108.28;4983715;28;20122;-67
2023/04/28 02:10:51;;;;;;;14.85;8.77;;;;;;;8.02;70.51;101104.88;4985557;28;20066;-71
2023/04/28 02:13:20;;;;;;;12.32;8.50;;;;;;;7.97;71.03;101109.31;4968194;28;20054;-71
2023/04/28 02:15:47;;;;;;;14.32;8.43;;;;;;;7.92;71.65;101098.88;4971239;28;20038;-72
2023/04/28 02:18:14;;;;;;;12.57;8.32;;;;;;;7.89;72.14;101091.94;4986965;28;20126;-71
2023/04/28 02:20:41;;;;;;;11.68;8.52;;;;;;;7.92;72.70;101086.66;4983873;28;20922;-71
2023/04/28 02:23:09;;;;;;;15.30;9.20;;;;;;;7.95;72.70;101069.97;4971303;28;20051;-71
2023/04/28 02:25:36;;;;;;;13.98;8.98;;;;;;;7.96;72.90;101076.09;4975379;28;20063;-72
2023/04/28 02:28:03;;;;;;;14.05;9.15;;;;;;;7.98;72.81;101082.19;4973308;28;20079;-71
2023/04/28 02:30:33;;;;;;;13.75;9.32;;;;;;;8.00;72.72;101090.91;4997300;28;20039;-72
2023/04/28 02:33:00;;;;;;;14.68;9.18;;;;;;;8.02;73.04;101083.88;4979833;28;20553;-72
2023/04/28 02:35:27;;;;;;;13.82;9.93;;;;;;;8.04;73.39;101089.94;4985070;28;20577;-71
2023/04/28 02:37:54;;;;;;;15.85;9.82;;;;;;;8.05;73.20;101078.56;4997677;28;20066;-72
2023/04/28 02:40:21;;;;;;;15.00;9.20;;;;;;;8.10;72.67;101084.63;4977344;28;20035;-71
2023/04/28 02:42:48;;;;;;;12.73;9.38;;;;;;;8.10;72.62;101082.00;4982803;28;20134;-71
2023/04/28 02:45:15;;;;;;;16.27;10.27;;;;;;;8.09;72.83;101082.88;4987117;28;20042;-72
2023/04/28 02:47:42;;;;;;;14.05;9.68;;;;;;;8.09;73.44;101077.63;4989926;28;20035;-71
2023/04/28 02:50:10;;;;;;;14.70;9.45;;;;;;;8.13;73.00;101063.56;4969154;28;20051;-70
2023/04/28 02:52:37;;;;;;;15.45;9.02;;;;;;;8.15;73.41;101060.91;4954130;28;20097;-70
2023/04/28 02:55:05;;;;;;;13.82;9.45;;;;;;;8.12;73.48;101048.69;4953730;28;20050;-71
2023/04/28 02:57:32;;;;;;;13.60;9.07;;;;;;;8.11;74.28;101040.81;4978501;28;20053;-70
2023/04/28 02:59:59;;;;;;;15.88;10.05;;;;;;;8.09;74.47;101040.88;4976962;28;20817;-69
2023/04/28 03:02:31;;;;;;;15.88;9.95;;;;;;;8.14;74.60;101038.16;4998616;28;21018;-69
2023/04/28 03:04:58;;;;;;;14.70;9.20;;;;;;;8.12;75.00;101026.81;4974022;28;21045;-70
2023/04/28 03:07:25;;;;;;;14.15;9.85;;;;;;;8.13;75.23;101021.56;4969449;28;20130;-69
2023/04/28 03:09:52;;;;;;;16.70;10.20;;;;;;;8.13;75.30;101010.16;4978492;28;20039;-70
2023/04/28 03:12:20;;;;;;;14.82;9.38;;;;;;;8.11;75.69;101007.56;4974424;28;20044;-71
2023/04/28 03:14:47;;;;;;;13.82;9.90;;;;;;;8.13;76.09;100989.16;4971206;28;20137;-70
2023/04/28 03:17:15;;;;;;;13.75;9.77;;;;;;;8.11;76.53;100993.56;4974161;28;20518;-70
2023/04/28 03:19:42;;;;;;;15.57;9.73;;;;;;;8.09;76.76;100981.31;4987006;28;20759;-70
2023/04/28 03:22:10;;;;;;;13.60;9.90;;;;;;;8.09;76.88;100981.31;4974239;28;20118;-71
2023/04/28 03:24:37;;;;;;;14.10;9.13;;;;;;;8.11;77.53;100983.94;4970163;28;20043;-70
2023/04/28 03:27:04;;;;;;;14.27;9.82;;;;;;;8.14;77.64;100997.00;4977241;28;20516;-70
2023/04/28 03:29:31;;;;;;;14.70;9.38;;;;;;;8.17;77.34;100996.09;4981762;28;20193;-70
2023/04/28 03:31:58;;;;;;;12.73;9.63;;;;;;;8.21;77.73;100992.50;4966547;28;20051;-71
2023/04/28 03:34:26;;;;;;;17.10;10.70;;;;;;;8.22;77.69;101000.38;4978070;28;20047;-70
2023/04/28 03:36:53;;;;;;;15.70;10.38;;;;;;;8.27;77.79;101012.53;4983723;28;20048;-70
2023/04/28 03:39:26;;;;;;;16.33;10.55;;;;;;;8.27;77.95;101004.66;4972865;28;20050;-71
2023/04/28 03:41:53;;;;;;;14.90;10.20;;;;;;;8.32;77.97;101000.22;4971451;28;20051;-70
2023/04/28 03:44:40;;;;;;;16.88;10.40;;;;;;;8.36;78.27;100996.63;4975317;28;20046;-70
2023/04/28 03:47:07;;;;;;;18.17;11.07;;;;;;;8.37;78.68;100987.84;4963234;28;20039;-70
2023/04/28 03:49:35;;;;;;;16.13;11.75;;;;;;;8.35;79.77;100990.50;4963373;28;20119;-70
2023/04/28 03:52:03;;;;;;;17.30;11.77;;;;;;;8.27;80.66;100997.66;4972828;28;20047;-71
2023/04/28 03:54:30;;;;;;;15.70;11.73;;;;;;;8.21;81.74;100992.50;4983848;28;20047;-71
2023/04/28 03:56:59;;;;;;;18.35;11.70;;;;;;;8.15;82.68;100995.25;4999069;28;20860;-70
2023/04/28 03:59:26;;;;;;;20.70;12.13;;;;;;;8.11;83.67;100993.56;4988604;28;20042;-70
2023/04/28 04:01:53;;;;;;;19.90;12.95;;;;;;;8.07;84.06;100988.38;4979974;28;20040;-71
2023/04/28 04:04:20;;;;;;;21.23;12.90;;;;;;;8.03;84.83;100981.44;4998230;28;20495;-70
2023/04/28 04:06:48;;;;;;;18.45;12.90;;;;;;;8.06;85.20;100991.03;4977031;28;20531;-71
2023/04/28 04:09:15;;;;;;;18.83;12.88;;;;;;;8.05;85.80;100984.91;4976862;28;20051;-71
2023/04/28 04:11:42;;;;;;;21.27;13.93;;;;;;;8.05;86.53;100984.91;4985157;28;20047;-70
2023/04/28 04:14:10;;;;;;;19.48;13.82;;;;;;;8.11;86.92;100981.31;4999431;28;20719;-71
2023/04/28 04:16:37;;;;;;;23.15;15.52;;;;;;;8.07;86.93;100974.38;4952988;28;20035;-71
2023/04/28 04:19:04;;;;;;;21.45;14.18;;;;;;;8.10;87.34;100974.31;4974735;28;20043;-71
2023/04/28 04:21:52;;;;;;;21.17;14.35;;;;;;;8.09;88.41;100973.44;4988351;28;20382;-70
2023/04/28 04:24:19;;;;;;;27.73;14.98;;;;;;;8.13;88.74;100963.78;4973046;28;20042;-71
2023/04/28 04:26:47;;;;;;;22.55;14.30;;;;;;;8.14;88.91;100962.84;4985047;28;20931;-70
2023/04/28 04:29:46;;;;;;;23.25;15.50;;;;;;;8.15;89.17;100958.50;4972623;28;20102;-70
2023/04/28 04:32:14;;;;;;;25.48;15.93;;;;;;;8.17;89.43;100954.94;4979719;28;20039;-70
2023/04/28 04:34:42;;;;;;;22.10;15.27;;;;;;;8.18;89.71;100964.53;4980767;28;20046;-70
2023/04/28 04:37:10;;;;;;;22.77;16.20;;;;;;;8.23;89.92;100961.84;4984632;28;20043;-70
2023/04/28 04:39:44;;;;;;;23.60;15.68;;;;;;;8.27;89.56;100960.00;4972764;28;20071;-70
2023/04/28 04:42:11;;;;;;;23.25;15.52;;;;;;;8.31;89.79;100953.81;4970643;28;20046;-70
2023/04/28 04:45:11;;;;;;;22.65;16.35;;;;;;;8.33;89.90;100957.28;4974453;28;20054;-71
2023/04/28 04:47:39;;;;;;;25.25;16.15;;;;;;;8.40;89.73;100948.38;4969874;28;20075;-70
2023/04/28 04:50:10;;;;;;;22.05;15.68;;;;;;;8.43;89.96;100945.72;4979775;28;20058;-70
2023/04/28 04:52:38;;;;;;;24.42;15.88;;;;;;;8.47;89.98;100951.75;4975754;28;20157;-70
2023/04/28 04:55:06;;;;;;;25.27;15.65;;;;;;;8.50;90.05;100947.34;4976359;28;20050;-70
2023/04/28 04:57:34;;;;;;;23.95;16.92;;;;;;;8.54;90.17;100940.25;4979034;28;20974;-70
2023/04/28 05:00:08;;;;;;;24.25;16.23;;;;;;;8.58;90.58;100948.94;4976538;28;20527;-70
2023/04/28 05:02:36;;;;;;;23.00;16.52;;;;;;;8.60;90.15;100952.41;4973616;28;20095;-70
2023/04/28 05:05:05;;;;;;;21.10;15.75;;;;;;;8.64;90.13;100949.69;4982031;28;20043;-70
2023/04/28 05:07:51;;;;;;;21.95;15.63;;;;;;;8.68;89.57;100959.25;4977762;28;20066;-70
2023/04/28 05:10:20;;;;;;;23.48;16.92;;;;;;;8.75;89.40;100964.38;4960353;28;20197;-72
2023/04/28 05:12:47;;;;;;;21.38;15.50;;;;;;;8.80;89.60;100963.38;4983070;28;20035;-70
2023/04/28 05:15:17;;;;;;;22.23;15.65;;;;;;;8.86;89.30;100954.50;4973608;28;20044;-70
2023/04/28 05:17:58;;;;;;;20.98;15.95;;;;;;;8.90;89.61;100948.28;4975840;28;20132;-70
2023/04/28 05:20:27;;;;;;;22.48;15.23;;;;;;;8.94;89.70;100947.31;4957181;28;20347;-70
2023/04/28 05:22:54;;;;;;;23.05;14.88;;;;;;;8.98;89.65;100935.84;4960062;28;20493;-70
2023/04/28 05:25:22;;;;;;;26.38;16.02;;;;;;;9.02;89.59;100940.09;4990088;28;20461;-71
2023/04/28 05:27:49;;;;;;;24.80;15.68;;;;;;;9.08;89.85;100944.38;4975306;28;20053;-70
2023/04/28 05:30:16;;;;;;;24.02;15.52;;;;;;;9.15;89.54;100939.84;4977649;28;20046;-70
2023/04/28 05:32:44;;;;;;;22.58;16.02;;;;;;;9.24;89.85;100937.00;4976797;28;20053;-72
2023/04/28 05:35:12;;;;;;;21.88;15.55;;;;;;;9.28;90.39;100936.03;4974060;28;21832;-70
2023/04/28 05:37:41;;;;;;;23.10;16.38;;;;;;;9.37;90.43;100929.66;4973523;28;20050;-70
2023/04/28 05:40:10;;;;;;;20.85;15.27;;;;;;;9.48;90.10;100926.78;4988477;28;20046;-70
2023/04/28 05:42:37;;;;;;;21.55;15.15;;;;;;;9.65;90.00;100923.75;4978617;28;20558;-70
2023/04/28 05:45:05;;;;;;;22.90;15.30;;;;;;;9.72;89.65;100920.06;4973978;28;20130;-70
2023/04/28 05:47:33;;;;;;;20.85;14.50;;;;;;;9.82;89.58;100904.88;4977319;28;20040;-69
2023/04/28 05:50:00;;;;;;;18.08;14.00;;;;;;;9.93;89.53;100900.19;4973432;28;20476;-69
2023/04/28 05:52:28;;;;;;;21.58;13.38;;;;;;;10.07;89.08;100893.69;4959113;28;20075;-70
2023/04/28 05:54:55;;;;;;;22.30;14.57;;;;;;;10.13;88.78;100897.94;4970321;28;20038;-70
2023/04/28 05:57:22;;;;;;;22.77;13.95;;;;;;;10.17;88.41;100905.69;4968879;28;20039;-70
2023/04/28 05:59:49;;;;;;;20.33;12.90;;;;;;;10.29;88.43;100911.53;4967069;28;20040;-70
2023/04/28 06:02:17;;;;;;;19.95;13.50;;;;;;;10.43;88.45;100901.50;4981175;28;20606;-70
2023/04/28 06:04:46;;;;;;;17.77;13.30;;;;;;;10.58;87.78;100908.13;4978419;28;20051;-70
2023/04/28 06:07:14;;;;;;;19.30;13.40;;;;;;;10.66;87.46;100906.13;4974950;28;20869;-70
2023/04/28 06:09:41;;;;;;;19.17;12.82;;;;;;;10.72;86.75;100907.69;4973992;28;20433;-69
2023/04/28 06:12:08;;;;;;;19.77;13.45;;;;;;;10.79;86.51;100909.25;4972085;28;20098;-68
2023/04/28 06:14:36;;;;;;;19.30;13.13;;;;;;;10.83;86.34;100907.38;4975917;28;20607;-68
2023/04/28 06:17:03;;;;;;;18.90;12.75;;;;;;;10.90;86.19;100910.69;4979150;28;20047;-69
2023/04/28 06:19:31;;;;;;;16.05;11.50;;;;;;;10.96;85.90;100908.72;4972926;28;20039;-68
2023/04/28 06:21:58;;;;;;;15.82;10.95;;;;;;;11.06;85.50;100911.94;4979017;28;20472;-68
2023/04/28 06:24:25;;;;;;;16.73;11.18;;;;;;;11.14;85.09;100912.53;4977152;28;20035;-68
2023/04/28 06:26:55;;;;;;;14.63;10.70;;;;;;;11.16;84.46;100920.44;4975633;28;20505;-68
2023/04/28 06:29:22;;;;;;;17.20;10.88;;;;;;;11.17;84.02;100925.66;4980800;28;20054;-68
2023/04/28 06:31:51;;;;;;;14.43;10.25;;;;;;;11.25;83.98;100916.63;4978581;28;20039;-68
2023/04/28 06:34:18;;;;;;;14.75;10.82;;;;;;;11.33;83.98;100911.97;4976378;28;20154;-68
2023/04/28 06:36:45;;;;;;;15.57;10.55;;;;;;;11.35;83.69;100918.06;4971866;28;20146;-68
2023/04/28 06:39:12;;;;;;;14.63;10.20;;;;;;;11.38;83.56;100911.84;4970924;28;20106;-68
2023/04/28 06:41:40;;;;;;;15.43;10.77;;;;;;;11.44;83.27;100914.25;4991266;28;20035;-68
2023/04/28 06:44:09;;;;;;;13.38;10.05;;;;;;;11.48;83.17;100918.53;4979472;28;20045;-68
2023/04/28 06:46:37;;;;;;;15.50;10.15;;;;;;;11.48;82.86;100906.19;4975405;28;20046;-68
2023/04/28 06:49:05;;;;;;;14.50;9.95;;;;;;;11.54;82.90;100905.13;4984322;28;20532;-69
2023/04/28 06:51:31;;;;;;;14.02;9.45;;;;;;;11.56;82.80;100902.41;4981030;28;20535;-68
2023/04/28 06:54:00;;;;;;;16.15;10.18;;;;;;;11.54;82.77;100896.34;4973801;28;20043;-69
2023/04/28 06:56:27;;;;;;;14.30;9.55;;;;;;;11.55;82.86;100903.38;4959314;28;20046;-69
2023/04/28 06:58:58;;;;;;;16.65;10.18;;;;;;;11.56;82.80;100905.06;4976902;28;20046;-69
2023/04/28 07:01:25;;;;;;;16.80;9.40;;;;;;;11.55;82.95;100903.38;4984821;28;20305;-69
2023/04/28 07:03:53;;;;;;;15.23;9.52;;;;;;;11.55;83.26;100904.22;4973871;28;20058;-68
2023/04/28 07:06:20;;;;;;;15.60;9.70;;;;;;;11.54;83.33;100904.28;4981155;28;20556;-69
2023/04/28 07:08:47;;;;;;;18.48;10.60;;;;;;;11.54;83.64;100904.28;4971241;28;20031;-69
2023/04/28 07:11:15;;;;;;;13.00;9.73;;;;;;;11.53;83.84;100898.13;4968811;28;20054;-69
2023/04/28 07:13:42;;;;;;;12.57;9.63;;;;;;;11.59;83.94;100897.94;4981806;28;20102;-69
2023/04/28 07:16:12;;;;;;;13.98;9.38;;;;;;;11.68;83.92;100902.00;4982556;28;20055;-69
2023/04/28 07:18:41;;;;;;;14.70;9.38;;;;;;;11.80;84.10;100892.84;4976503;28;20428;-70
2023/04/28 07:21:09;;;;;;;13.63;9.32;;;;;;;11.93;83.65;100888.81;4992736;28;20507;-69
2023/04/28 07:23:44;;;;;;;16.65;9.43;;;;;;;12.06;83.63;100893.72;4974186;28;20059;-69
2023/04/28 07:26:15;;;;;;;14.35;8.60;;;;;;;12.16;83.08;100895.09;4978852;28;20039;-70
2023/04/28 07:28:46;;;;;;;15.32;9.10;;;;;;;12.27;82.79;100892.06;4972832;28;20497;-69
2023/04/28 07:31:16;;;;;;;14.43;8.70;;;;;;;12.36;82.69;100902.28;4972822;28;20312;-69
2023/04/28 07:33:44;;;;;;;14.48;8.98;;;;;;;12.49;82.71;100896.56;4971322;28;20106;-70
2023/04/28 07:36:15;;;;;;;13.40;8.35;;;;;;;12.64;82.49;100901.28;4973691;28;20490;-70
2023/04/28 07:38:43;;;;;;;16.05;9.07;;;;;;;12.72;82.16;100899.22;4983156;28;20039;-70
2023/04/28 07:41:11;;;;;;;15.00;8.48;;;;;;;12.77;82.00;100896.38;4975876;28;20471;-72
2023/04/28 07:43:40;;;;;;;17.23;9.02;;;;;;;12.78;81.93;100892.81;4972342;28;20044;-70
2023/04/28 07:46:07;;;;;;;13.80;8.68;;;;;;;12.82;81.91;100886.47;4974312;28;20039;-70
2023/04/28 07:48:35;;;;;;;18.17;8.93;;;;;;;12.98;81.95;100892.03;4987582;28;20043;-70
2023/04/28 07:51:02;;;;;;;13.30;8.70;;;;;;;13.12;81.53;100899.44;4982561;28;20058;-70
2023/04/28 07:53:29;;;;;;;10.90;8.32;;;;;;;13.21;81.48;100890.25;4969528;28;20397;-69
2023/04/28 07:55:56;;;;;;;12.30;9.05;;;;;;;13.25;80.76;100883.91;4985403;28;20054;-70
2023/04/28 07:58:23;;;;;;;12.55;8.30;;;;;;;13.32;80.39;100887.19;4987877;28;20035;-70
2023/04/28 08:00:50;;;;;;;13.18;8.77;;;;;;;13.37;79.87;100882.53;4986566;28;20045;-70
2023/04/28 08:03:17;;;;;;;12.85;8.88;;;;;;;13.41;79.71;100883.31;4953868;28;20469;-70
2023/04/28 08:05:45;;;;;;;14.52;8.73;;;;;;;13.48;79.92;100890.09;4974211;28;20050;-70
2023/04/28 08:08:12;;;;;;;13.85;8.57;;;;;;;13.57;79.97;100875.56;4976737;28;20038;-70
2023/04/28 08:10:41;;;;;;;14.30;8.50;;;;;;;13.69;79.18;100879.47;4986192;28;20129;-71
2023/04/28 08:13:08;;;;;;;11.45;7.95;;;;;;;13.81;79.59;100871.88;4967757;28;20035;-69
2023/04/28 08:15:35;;;;;;;13.40;9.32;;;;;;;13.96;78.96;100869.47;4970167;28;20051;-69
2023/04/28 08:18:02;;;;;;;15.65;9.43;;;;;;;14.16;78.63;100873.03;4973472;28;20067;-70
2023/04/28 08:20:31;;;;;;;11.57;8.45;;;;;;;14.45;78.23;100864.63;4967633;28;20066;-70
2023/04/28 08:22:58;;;;;;;10.73;8.50;;;;;;;14.75;77.17;100869.44;4985963;28;20043;-69
2023/04/28 08:25:25;;;;;;;14.02;9.10;;;;;;;14.99;76.31;100873.69;4976988;28;20043;-69
2023/04/28 08:27:54;;;;;;;20.85;8.93;;;;;;;15.10;75.58;100863.41;4983510;28;20090;-70
2023/04/28 08:30:23;;;;;;;11.05;7.93;;;;;;;15.26;74.97;100874.09;4972893;28;20059;-70
2023/04/28 08:32:50;;;;;;;11.23;7.90;;;;;;;15.39;75.24;100879.69;4977513;28;20041;-70
2023/04/28 08:35:18;;;;;;;9.70;7.50;;;;;;;15.37;74.50;100863.81;4982022;28;20489;-70
2023/04/28 08:37:48;;;;;;;10.40;7.70;;;;;;;15.30;75.47;100877.50;4972671;28;20043;-69
2023/04/28 08:40:15;;;;;;;9.63;7.78;;;;;;;15.25;75.95;100880.38;4976693;28;20044;-69
2023/04/28 08:42:44;;;;;;;9.95;8.15;;;;;;;15.15;75.80;100884.41;4984911;28;20899;-70
2023/04/28 08:45:14;;;;;;;12.73;8.52;;;;;;;15.10;76.23;100883.75;4985100;28;20545;-70
2023/04/28 08:47:46;;;;;;;10.82;8.55;;;;;;;15.12;76.39;100888.06;4973425;28;20077;-70
2023/04/28 08:50:15;;;;;;;14.60;10.07;;;;;;;15.12;76.93;100884.56;4986502;28;20158;-70
2023/04/28 08:52:42;;;;;;;13.80;10.30;;;;;;;15.02;77.39;100890.31;4986543;28;20054;-70
2023/04/28 08:55:11;;;;;;;12.60;9.18;;;;;;;15.01;77.88;100887.72;4985795;28;20531;-70
2023/04/28 08:57:52;;;;;;;10.05;9.00;;;;;;;15.06;77.73;100885.72;4988284;28;20047;-69
2023/04/28 09:00:20;;;;;;;12.55;9.55;;;;;;;15.14;78.06;100882.69;4988231;28;20323;-69
2023/04/28 09:02:47;;;;;;;18.25;10.32;;;;;;;15.22;78.74;100881.34;4988302;28;20042;-70
2023/04/28 09:05:14;;;;;;;15.38;9.88;;;;;;;15.27;78.15;100880.28;4986055;28;20043;-69
2023/04/28 09:07:47;;;;;;;14.88;9.73;;;;;;;15.22;78.30;100884.00;4988930;28;20075;-69
2023/04/28 09:10:23;;;;;;;18.55;9.18;;;;;;;15.25;78.00;100883.03;4975044;28;20046;-71
2023/04/28 09:12:53;;;;;;;12.57;10.05;;;;;;;15.33;77.71;100883.50;4986962;28;20038;-69
2023/04/28 09:15:40;;;;;;;15.85;10.57;;;;;;;15.41;77.55;100875.16;4978143;28;20046;-70
2023/04/28 09:18:07;;;;;;;15.98;10.55;;;;;;;15.43;77.50;100880.38;4986050;28;20047;-71
2023/04/28 09:20:36;;;;;;;16.20;10.63;;;;;;;15.43;77.53;100872.41;4987440;28;20043;-72
2023/04/28 09:23:21;;;;;;;15.15;10.52;;;;;;;15.42;77.37;100874.19;4969730;28;20082;-72
2023/04/28 09:26:02;;;;;;;14.45;11.18;;;;;;;15.40;77.37;100876.09;5002563;28;20038;-71
2023/04/28 09:28:31;;;;;;;17.27;11.05;;;;;;;15.38;77.73;100878.81;4987025;28;20050;-71
2023/04/28 09:31:01;;;;;;;15.65;10.77;;;;;;;15.50;78.00;100872.03;4985255;28;20214;-72
2023/04/28 09:33:28;;;;;;;19.58;11.05;;;;;;;15.65;78.30;100862.41;4970084;28;20047;-71
2023/04/28 09:35:55;;;;;;;17.92;10.48;;;;;;;15.84;78.24;100866.81;4988261;28;20031;-72
2023/04/28 09:38:22;;;;;;;16.27;10.57;;;;;;;16.11;77.87;100863.63;4972446;28;20051;-72
2023/04/28 09:41:01;;;;;;;16.80;10.18;;;;;;;16.25;77.64;100868.22;4982156;28;20103;-72
2023/04/28 09:43:33;;;;;;;18.10;10.32;;;;;;;16.29;77.31;100870.63;4981079;28;20057;-71
2023/04/28 09:46:04;;;;;;;15.82;10.13;;;;;;;16.23;76.75;100878.06;4980289;28;20047;-71
2023/04/28 09:48:37;;;;;;;12.88;9.85;;;;;;;16.09;76.57;100874.34;4983886;28;20038;-71
2023/04/28 09:51:06;;;;;;;13.57;10.20;;;;;;;15.98;76.64;100876.72;4984635;28;20059;-71
2023/04/28 09:53:34;;;;;;;12.38;10.50;;;;;;;15.87;77.02;100873.75;4966695;28;20039;-69
2023/04/28 09:56:04;;;;;;;14.27;10.65;;;;;;;15.75;77.27;100868.09;4977604;28;20047;-71
2023/04/28 09:58:39;;;;;;;15.00;10.25;;;;;;;15.68;77.47;100869.38;4984554;28;20540;-71
2023/04/28 10:01:12;;;;;;;14.68;10.40;;;;;;;15.68;77.61;100862.25;4969580;28;20094;-71
2023/04/28 10:03:41;;;;;;;15.23;11.13;;;;;;;15.67;77.84;100855.22;4981198;28;20055;-71
2023/04/28 10:06:09;;;;;;;18.17;11.73;;;;;;;15.73;78.71;100856.69;4966823;28;20043;-70
2023/04/28 10:08:36;;;;;;;15.63;11.25;;;;;;;15.75;79.46;100860.13;4980966;28;20542;-71
2023/04/28 10:11:04;;;;;;;12.48;10.00;;;;;;;15.74;79.52;100862.88;4977821;28;20050;-71
2023/04/28 10:13:34;;;;;;;15.55;10.25;;;;;;;15.66;79.55;100857.97;4967508;28;20969;-71
2023/04/28 10:16:02;;;;;;;12.77;9.75;;;;;;;15.53;79.51;100868.34;4978050;28;20082;-71
2023/04/28 10:18:33;;;;;;;11.85;9.35;;;;;;;15.46;79.69;100861.66;4982820;28;20043;-71
2023/04/28 10:21:04;;;;;;;10.50;8.93;;;;;;;15.40;79.97;100868.13;4985559;28;20053;-71
2023/04/28 10:24:13;;;;;;;10.55;8.55;;;;;;;15.37;80.12;100863.81;4980376;28;20065;-70
2023/04/28 10:27:07;;;;;;;13.25;8.77;;;;;;;15.35;80.55;100870.13;4970297;28;20039;-70
2023/04/28 10:29:35;;;;;;;11.80;8.68;;;;;;;15.32;80.60;100862.31;4975255;28;20039;-71
2023/04/28 10:32:14;;;;;;;10.93;8.63;;;;;;;15.29;80.65;100873.94;4969190;28;20039;-71
2023/04/28 10:34:41;;;;;;;10.70;8.88;;;;;;;15.28;81.79;100874.03;4969485;28;20039;-71
2023/04/28 10:37:09;;;;;;;10.15;8.88;;;;;;;15.29;81.78;100862.47;4971598;28;20043;-70
2023/04/28 10:39:37;;;;;;;11.32;8.80;;;;;;;15.34;81.45;100871.94;4978894;28;20069;-71
2023/04/28 10:42:47;;;;;;;12.20;9.18;;;;;;;15.47;81.53;100869.53;4967489;28;20792;-71
2023/04/28 10:45:56;;;;;;;9.93;8.93;;;;;;;15.70;81.34;100870.16;4970017;28;20126;-71
2023/04/28 10:48:33;;;;;;;12.38;9.15;;;;;;;15.88;81.12;100863.03;4985248;28;20642;-71
2023/04/28 10:51:04;;;;;;;11.80;9.45;;;;;;;15.92;81.18;100866.41;4979902;28;20106;-71
2023/04/28 10:53:43;;;;;;;10.45;8.50;;;;;;;15.97;81.03;100859.03;4983879;28;20133;-71
2023/04/28 10:56:31;;;;;;;9.75;8.48;;;;;;;15.93;81.06;100868.13;4966693;28;20578;-71
2023/04/28 10:58:59;;;;;;;12.15;9.25;;;;;;;15.91;80.93;100862.88;4977123;28;20039;-71
2023/04/28 11:01:30;;;;;;;9.90;8.00;;;;;;;15.93;81.22;100870.78;4971861;28;20481;-70
2023/04/28 11:04:09;;;;;;;12.52;9.18;;;;;;;15.92;81.43;100871.75;4980466;28;20042;-71
2023/04/28 11:06:42;;;;;;;13.98;8.90;;;;;;;15.87;81.48;100866.66;4980072;28;20043;-71
2023/04/28 11:09:18;;;;;;;11.35;9.10;;;;;;;15.83;81.22;100867.72;4981270;28;20106;-71
2023/04/28 11:12:04;;;;;;;13.18;8.88;;;;;;;15.86;81.26;100864.06;4969100;28;20047;-72
2023/04/28 11:14:35;;;;;;;10.75;8.77;;;;;;;15.87;81.63;100861.34;4967142;28;20560;-71
2023/04/28 11:17:10;;;;;;;10.98;8.95;;;;;;;15.83;81.36;100865.06;4969846;28;20049;-72
2023/04/28 11:19:44;;;;;;;12.23;9.20;;;;;;;15.71;81.77;100865.69;4984454;28;20046;-71
2023/04/28 11:22:18;;;;;;;12.40;9.30;;;;;;;15.63;82.00;100869.59;4982394;28;20094;-72
2023/04/28 11:24:56;;;;;;;11.18;8.98;;;;;;;15.59;82.01;100867.19;4979940;28;20039;-72
2023/04/28 11:27:29;;;;;;;15.45;10.52;;;;;;;15.63;82.33;100866.94;4979764;28;20126;-72
2023/04/28 11:29:58;;;;;;;19.47;12.17;;;;;;;15.71;82.27;100865.69;4965771;28;20865;-72
2023/04/28 11:32:33;;;;;;;18.40;13.07;;;;;;;15.76;81.79;100858.34;4966305;28;20273;-71